»·PEaware :: N48HB KBOI-KIDA

N48HB :: KBOI-KIDA

FLIGHT INFORMATION

Flight Status: Arrived
Operator: Privately registered:
United States
More flights under this callsign
Pilot: Harold B. (11150)
Aircraft: BEECH AIRCRAFT BARON
(BE58)
More flights by this aircraft type
Origin: KBOI Boise Air Terminal/Gowen
United States
Destination: KIDA Idaho Falls Regl
United States
More flights between these airports :: More routes between these airports
Route: +BOI ROARR IDA
File this flight plan on PilotEdge
Remarks: Beech Baron 58 / G
Altitude:
(Current/Filed)
12,500ft
Speed:
(Current/Filed)
0kts
Departed: 20-Jun-18 08:39 AM
Arrived: 20-Jun-18 09:49 AM
Distance/Time
Traveled:
181nm/1:10
Distance/Time
To Go:
Arrived

Flight Plot

Page will automatically refresh every two minutes.

Flight plan parsing failed; only flown route is shown


Map Options




Map Legend


Flown Route
Filed Route
Departure Airport
Arrival Airport
Navaid (VOR, NDB)
Fix

Horizontal Profiles

Position Reports

Time Latitude Longitude Heading Altitude Ground
Speed
20-Jun-18 08:09 43.566650 -116.215732 204 2850ft 0kts
20-Jun-18 08:10 43.566650 -116.215732 204 2850ft 0kts
20-Jun-18 08:11 43.569143 -116.227083 2 2837ft 0kts
20-Jun-18 08:12 43.569143 -116.227083 2 2837ft 0kts
20-Jun-18 08:13 43.569143 -116.227083 2 2837ft 0kts
20-Jun-18 08:14 43.569143 -116.227083 2 2837ft 0kts
20-Jun-18 08:15 43.569143 -116.227083 2 2837ft 0kts
20-Jun-18 08:16 43.569143 -116.227083 2 2837ft 0kts
20-Jun-18 08:17 43.569143 -116.227083 2 2837ft 0kts
20-Jun-18 08:18 43.569143 -116.227083 2 2837ft 0kts
20-Jun-18 08:19 43.569143 -116.227083 2 2837ft 0kts
20-Jun-18 08:20 43.569143 -116.227083 2 2837ft 0kts
20-Jun-18 08:21 43.569143 -116.227083 2 2837ft 0kts
20-Jun-18 08:22 43.569143 -116.227083 2 2837ft 0kts
20-Jun-18 08:23 43.569143 -116.227083 2 2837ft 0kts
20-Jun-18 08:24 43.569143 -116.227083 2 2837ft 0kts
20-Jun-18 08:25 43.569143 -116.227083 2 2837ft 0kts
20-Jun-18 08:26 43.569143 -116.227083 2 2837ft 0kts
20-Jun-18 08:27 43.569143 -116.227083 2 2837ft 0kts
20-Jun-18 08:28 43.569143 -116.227083 2 2837ft 0kts
20-Jun-18 08:29 43.569143 -116.227083 2 2837ft 0kts
20-Jun-18 08:30 43.569143 -116.227083 2 2837ft 0kts
20-Jun-18 08:31 43.569143 -116.227083 2 2837ft 0kts
20-Jun-18 08:32 43.569143 -116.227083 2 2837ft 0kts
20-Jun-18 08:33 43.569143 -116.227083 2 2837ft 0kts
20-Jun-18 08:34 43.569155 -116.227083 2 2837ft 0kts
20-Jun-18 08:35 43.568375 -116.227772 297 2836ft 10kts
20-Jun-18 08:36 43.570270 -116.233399 295 2828ft 19kts
20-Jun-18 08:37 43.570894 -116.235752 240 2822ft 0kts
20-Jun-18 08:38 43.570680 -116.236011 209 2822ft 5kts
20-Jun-18 08:39 43.564226 -116.219451 116 2966ft 110kts
20-Jun-18 08:40 43.552548 -116.174076 100 3766ft 143kts
20-Jun-18 08:41 43.544371 -116.123965 94 5108ft 134kts
20-Jun-18 08:42 43.540135 -116.072357 98 6240ft 137kts
20-Jun-18 08:43 43.534576 -116.020284 98 7264ft 138kts
20-Jun-18 08:44 43.528955 -115.968171 98 8258ft 136kts
20-Jun-18 08:45 43.523477 -115.917382 98 9245ft 131kts
20-Jun-18 08:46 43.518160 -115.868296 98 10101ft 132kts
20-Jun-18 08:47 43.512538 -115.816841 98 10813ft 139kts
20-Jun-18 08:48 43.506650 -115.763176 98 11520ft 142kts
20-Jun-18 08:49 43.500722 -115.709294 98 12216ft 143kts
20-Jun-18 08:50 43.494788 -115.655522 98 12909ft 141kts
20-Jun-18 08:51 43.488747 -115.600914 98 13349ft 154kts
20-Jun-18 08:52 43.481383 -115.538602 99 13379ft 172kts
20-Jun-18 08:53 43.474106 -115.471614 97 13318ft 179kts
20-Jun-18 08:54 43.466609 -115.403839 98 13316ft 179kts
20-Jun-18 08:55 43.458883 -115.336113 99 13205ft 183kts
20-Jun-18 08:56 43.451175 -115.267438 99 13197ft 180kts
20-Jun-18 08:57 43.443416 -115.199547 99 13197ft 179kts
20-Jun-18 08:58 43.435474 -115.131642 99 13198ft 179kts
20-Jun-18 08:59 43.427626 -115.064023 99 13198ft 179kts
20-Jun-18 09:00 43.419746 -114.996363 99 13198ft 179kts
20-Jun-18 09:01 43.411828 -114.928734 99 13198ft 179kts
20-Jun-18 09:02 43.403847 -114.860935 99 13198ft 179kts
20-Jun-18 09:03 43.395862 -114.793460 99 13198ft 179kts
20-Jun-18 09:04 43.387805 -114.725729 99 13198ft 179kts
20-Jun-18 09:05 43.379713 -114.658061 99 13198ft 179kts
20-Jun-18 09:06 43.372156 -114.595184 99 13198ft 179kts
20-Jun-18 09:07 43.363974 -114.527444 99 13198ft 179kts
20-Jun-18 09:08 43.355760 -114.459787 99 13198ft 179kts
20-Jun-18 09:09 43.347533 -114.392380 99 13198ft 179kts
20-Jun-18 09:10 43.341928 -114.346639 99 13198ft 179kts
20-Jun-18 09:11 43.354379 -114.282927 71 13229ft 180kts
20-Jun-18 09:12 43.352655 -114.233699 123 13203ft 179kts
20-Jun-18 09:13 43.347829 -114.172178 81 13199ft 179kts
20-Jun-18 09:14 43.353773 -114.104200 83 13198ft 179kts
20-Jun-18 09:15 43.359544 -114.036065 83 13198ft 179kts
20-Jun-18 09:16 43.363501 -113.979206 92 13198ft 179kts
20-Jun-18 09:17 43.362177 -113.906852 86 13198ft 179kts
20-Jun-18 09:18 43.366419 -113.849978 82 13198ft 179kts
20-Jun-18 09:19 43.372786 -113.781902 82 13198ft 179kts
20-Jun-18 09:20 43.379113 -113.713814 82 13198ft 179kts
20-Jun-18 09:21 43.386413 -113.634368 82 13198ft 179kts
20-Jun-18 09:22 43.391582 -113.577717 82 13198ft 179kts
20-Jun-18 09:23 43.397762 -113.509576 82 13198ft 179kts
20-Jun-18 09:24 43.403862 -113.441840 82 13198ft 179kts
20-Jun-18 09:25 43.409773 -113.373606 85 13198ft 179kts
20-Jun-18 09:26 43.412386 -113.304478 87 13074ft 184kts
20-Jun-18 09:27 43.414738 -113.241527 87 13214ft 177kts
20-Jun-18 09:28 43.417492 -113.173454 87 13217ft 179kts
20-Jun-18 09:29 43.420089 -113.104932 87 13218ft 179kts
20-Jun-18 09:30 43.422711 -113.036362 87 13218ft 179kts
20-Jun-18 09:31 43.425223 -112.971138 86 12548ft 163kts
20-Jun-18 09:32 43.427638 -112.910115 86 11546ft 158kts
20-Jun-18 09:33 43.432981 -112.850156 77 10544ft 157kts
20-Jun-18 09:34 43.442798 -112.791637 76 9548ft 157kts
20-Jun-18 09:35 43.452753 -112.733070 76 8552ft 157kts
20-Jun-18 09:36 43.462725 -112.674468 76 7556ft 158kts
20-Jun-18 09:37 43.472052 -112.619882 76 7186ft 126kts
20-Jun-18 09:38 43.479565 -112.566531 81 7205ft 162kts
20-Jun-18 09:39 43.486214 -112.502485 81 7198ft 172kts
20-Jun-18 09:40 43.493093 -112.436442 81 7198ft 174kts
20-Jun-18 09:41 43.498410 -112.370199 83 7197ft 174kts
20-Jun-18 09:42 43.503650 -112.303926 84 7197ft 174kts
20-Jun-18 09:43 43.509038 -112.237415 80 7195ft 174kts
20-Jun-18 09:44 43.527013 -112.181249 58 6670ft 143kts
20-Jun-18 09:45 43.542578 -112.141334 66 6142ft 114kts
20-Jun-18 09:46 43.547149 -112.099882 88 5618ft 102kts
20-Jun-18 09:47 43.549425 -112.061846 106 5206ft 94kts
20-Jun-18 09:48 43.527031 -112.061618 176 4831ft 94kts
20-Jun-18 09:49 43.511993 -112.062126 167 4725ft 9kts
20-Jun-18 09:50 43.512455 -112.060808 31 4723ft 0kts

Navigation Log

Ident Type
Flight plan parsing failed, navigation log unavailable